createdAt,value
2019-05-26T00:00:57.795Z,6.10
2019-05-26T00:03:25.331Z,6.57
2019-05-26T00:05:53.011Z,5.27
2019-05-26T00:08:20.675Z,6.10
2019-05-26T00:10:48.119Z,6.00
2019-05-26T00:13:15.634Z,6.40
2019-05-26T00:15:43.623Z,5.53
2019-05-26T00:18:11.083Z,5.40
2019-05-26T00:20:38.567Z,6.17
2019-05-26T00:23:06.027Z,5.63
2019-05-26T00:25:33.663Z,5.80
2019-05-26T00:28:01.184Z,5.87
2019-05-26T00:30:29.042Z,5.50
2019-05-26T00:32:56.996Z,5.73
2019-05-26T00:35:24.525Z,5.80
2019-05-26T00:37:51.957Z,5.57
2019-05-26T00:40:19.489Z,5.63
2019-05-26T00:42:47.048Z,6.07
2019-05-26T00:45:14.838Z,5.70
2019-05-26T00:48:02.332Z,5.83
2019-05-26T00:50:31.558Z,5.17
2019-05-26T00:52:59.013Z,6.10
2019-05-26T00:55:26.541Z,5.30
2019-05-26T00:57:54.338Z,5.43
2019-05-26T01:00:39.107Z,4.97
2019-05-26T01:03:06.751Z,5.47
2019-05-26T01:05:34.443Z,5.40
2019-05-26T01:08:06.383Z,5.10
2019-05-26T01:10:31.189Z,5.27
2019-05-26T01:12:58.607Z,5.27
2019-05-26T01:15:26.138Z,5.03
2019-05-26T01:17:53.822Z,4.63
2019-05-26T01:20:21.402Z,4.67
2019-05-26T01:22:48.952Z,4.50
2019-05-26T01:25:16.564Z,5.33
2019-05-26T01:27:44.049Z,4.90
2019-05-26T01:30:11.490Z,4.70
2019-05-26T01:32:39.041Z,4.70
2019-05-26T01:35:07.191Z,4.70
2019-05-26T01:37:37.059Z,5.33
2019-05-26T01:40:06.166Z,5.10
2019-05-26T01:42:33.822Z,4.17
2019-05-26T01:45:01.421Z,4.80
2019-05-26T01:47:29.074Z,4.67
2019-05-26T01:49:56.646Z,4.43
2019-05-26T01:52:24.120Z,4.70
2019-05-26T01:54:51.600Z,4.80
2019-05-26T01:57:19.142Z,4.50
2019-05-26T01:59:46.634Z,4.90
2019-05-26T02:02:14.116Z,4.67
2019-05-26T02:04:41.605Z,4.70
2019-05-26T02:07:09.396Z,4.30
2019-05-26T02:09:36.822Z,4.43
2019-05-26T02:12:06.360Z,4.70
2019-05-26T02:14:35.070Z,4.60
2019-05-26T02:17:02.618Z,4.17
2019-05-26T02:19:30.365Z,4.20
2019-05-26T02:21:57.886Z,4.53
2019-05-26T02:24:25.555Z,4.33
2019-05-26T02:26:53.231Z,4.50
2019-05-26T02:29:20.742Z,4.10
2019-05-26T02:31:48.263Z,3.70
2019-05-26T02:34:15.856Z,3.90
2019-05-26T02:36:43.415Z,4.27
2019-05-26T02:39:11.092Z,4.27
2019-05-26T02:41:38.707Z,3.70
2019-05-26T02:44:06.312Z,3.87
2019-05-26T02:46:33.762Z,3.70
2019-05-26T02:49:01.337Z,3.80
2019-05-26T02:51:28.879Z,3.87
2019-05-26T02:53:56.289Z,3.83
2019-05-26T02:56:23.729Z,3.47
2019-05-26T02:58:51.116Z,3.67
2019-05-26T03:01:18.609Z,3.43
2019-05-26T03:03:46.059Z,3.30
2019-05-26T03:06:14.925Z,3.27
2019-05-26T03:08:44.419Z,3.43
2019-05-26T03:11:13.384Z,4.20
2019-05-26T03:13:43.331Z,3.70
2019-05-26T03:16:11.208Z,3.80
2019-05-26T03:18:40.175Z,4.00
2019-05-26T03:21:08.718Z,3.63
2019-05-26T03:23:37.983Z,3.60
2019-05-26T03:26:05.529Z,3.40
2019-05-26T03:28:33.279Z,3.90
2019-05-26T03:31:00.778Z,3.90
2019-05-26T03:33:28.263Z,3.63
2019-05-26T03:35:55.742Z,3.90
2019-05-26T03:38:23.225Z,3.50
2019-05-26T03:40:50.612Z,3.50
2019-05-26T03:43:18.132Z,3.27
2019-05-26T03:46:17.462Z,3.70
2019-05-26T03:48:45.270Z,3.20
2019-05-26T03:51:13.139Z,3.17
2019-05-26T03:53:40.590Z,3.10
2019-05-26T03:56:08.099Z,3.40
2019-05-26T03:58:35.593Z,3.20
2019-05-26T04:01:03.398Z,3.13
2019-05-26T04:03:30.860Z,3.27
2019-05-26T04:05:58.333Z,3.60
2019-05-26T04:08:25.918Z,3.20
2019-05-26T04:10:53.408Z,3.63
2019-05-26T04:13:21.005Z,3.20
2019-05-26T04:15:48.399Z,3.40
2019-05-26T04:18:15.838Z,3.30
2019-05-26T04:20:45.912Z,3.20
2019-05-26T04:23:12.526Z,3.30
2019-05-26T04:25:40.005Z,3.30
2019-05-26T04:28:07.491Z,3.37
2019-05-26T04:30:35.042Z,3.40
2019-05-26T04:33:02.502Z,3.20
2019-05-26T04:35:30.039Z,3.10
2019-05-26T04:37:57.572Z,3.40
2019-05-26T04:40:27.492Z,3.23
2019-05-26T04:42:54.555Z,3.03
2019-05-26T04:45:22.044Z,3.23
2019-05-26T04:47:49.529Z,3.30
2019-05-26T04:50:17.099Z,2.83
2019-05-26T04:53:04.504Z,3.37
2019-05-26T04:55:13.925Z,3.30
2019-05-26T04:57:41.732Z,3.00
2019-05-26T05:00:09.327Z,3.17
2019-05-26T05:02:36.941Z,3.10
2019-05-26T05:05:04.570Z,3.03
2019-05-26T05:07:32.049Z,3.10
2019-05-26T05:09:59.538Z,3.10
2019-05-26T05:12:27.024Z,3.37
2019-05-26T05:14:54.525Z,3.10
2019-05-26T05:17:22.030Z,2.90
2019-05-26T05:19:49.547Z,3.40
2019-05-26T05:22:17.168Z,3.40
2019-05-26T05:24:44.703Z,3.47
2019-05-26T05:27:12.376Z,3.30
2019-05-26T05:29:39.807Z,2.83
2019-05-26T05:32:07.418Z,2.83
2019-05-26T05:34:35.065Z,3.17
2019-05-26T05:37:02.585Z,3.17
2019-05-26T05:39:29.997Z,3.17
2019-05-26T05:41:57.457Z,2.87
2019-05-26T05:44:24.993Z,2.87
2019-05-26T05:46:52.697Z,3.00
2019-05-26T05:49:20.203Z,2.90
2019-05-26T05:51:47.757Z,3.03
2019-05-26T05:54:15.263Z,2.90
2019-05-26T05:56:42.756Z,3.10
2019-05-26T05:59:10.382Z,3.00
2019-05-26T06:01:38.111Z,3.10
2019-05-26T06:04:05.755Z,3.03
2019-05-26T06:06:33.235Z,3.10
2019-05-26T06:09:00.733Z,3.07
2019-05-26T06:11:28.187Z,3.47
2019-05-26T06:13:55.871Z,3.63
2019-05-26T06:16:23.297Z,3.40
2019-05-26T06:18:52.613Z,3.20
2019-05-26T06:21:20.194Z,3.57
2019-05-26T06:23:47.763Z,3.30
2019-05-26T06:26:15.151Z,3.20
2019-05-26T06:28:42.687Z,3.47
2019-05-26T06:31:10.460Z,3.43
2019-05-26T06:33:38.111Z,3.67
2019-05-26T06:36:05.753Z,3.50
2019-05-26T06:38:33.627Z,3.60
2019-05-26T06:41:01.052Z,3.40
2019-05-26T06:43:28.857Z,3.20
2019-05-26T06:45:56.439Z,3.40
2019-05-26T06:48:26.726Z,3.90
2019-05-26T06:50:53.794Z,4.07
2019-05-26T06:53:21.269Z,4.20
2019-05-26T06:58:15.887Z,4.10
2019-05-26T07:00:43.388Z,4.03
2019-05-26T07:03:10.860Z,4.57
2019-05-26T07:05:38.293Z,4.33
2019-05-26T07:08:05.737Z,3.90
2019-05-26T07:10:33.358Z,3.87
2019-05-26T07:13:00.979Z,4.40
2019-05-26T07:15:28.646Z,4.07
2019-05-26T07:17:56.530Z,4.33
2019-05-26T07:20:23.920Z,3.87
2019-05-26T07:22:51.472Z,4.83
2019-05-26T07:25:18.841Z,4.80
2019-05-26T07:27:46.202Z,4.30
2019-05-26T07:30:15.064Z,4.27
2019-05-26T07:32:42.819Z,4.90
2019-05-26T07:35:10.548Z,5.40
2019-05-26T07:37:38.258Z,4.60
2019-05-26T07:40:06.138Z,4.80
2019-05-26T07:42:33.894Z,4.47
2019-05-26T07:45:01.491Z,5.37
2019-05-26T07:47:29.042Z,4.80
2019-05-26T07:49:56.606Z,5.40
2019-05-26T07:52:24.988Z,5.43
2019-05-26T07:54:54.532Z,4.90
2019-05-26T07:57:21.987Z,4.50
2019-05-26T07:59:49.697Z,4.90
2019-05-26T08:02:17.328Z,4.57
2019-05-26T08:04:45.102Z,4.90
2019-05-26T08:07:12.780Z,4.60
2019-05-26T08:09:40.268Z,5.23
2019-05-26T08:12:07.918Z,4.67
2019-05-26T08:14:35.379Z,4.90
2019-05-26T08:17:03.047Z,5.53
2019-05-26T08:19:30.534Z,4.67
2019-05-26T08:21:58.344Z,4.60
2019-05-26T08:24:25.831Z,4.60
2019-05-26T08:26:53.183Z,4.47
2019-05-26T08:29:20.705Z,5.13
2019-05-26T08:31:48.296Z,5.10
2019-05-26T08:34:15.803Z,4.73
2019-05-26T08:36:43.508Z,4.10
2019-05-26T08:39:11.043Z,4.73
2019-05-26T08:41:38.606Z,4.33
2019-05-26T08:44:06.242Z,5.73
2019-05-26T08:46:33.730Z,5.20
2019-05-26T08:49:01.395Z,4.60
2019-05-26T08:51:28.841Z,4.50
2019-05-26T08:53:56.443Z,4.13
2019-05-26T08:56:23.975Z,4.43
2019-05-26T08:58:51.535Z,3.97
2019-05-26T09:01:19.517Z,4.07
2019-05-26T09:03:47.263Z,4.23
2019-05-26T09:06:16.274Z,4.07
2019-05-26T09:08:44.055Z,4.20
2019-05-26T09:11:11.457Z,3.87
2019-05-26T09:13:40.703Z,4.40
2019-05-26T09:16:32.097Z,5.63
2019-05-26T09:19:04.387Z,4.20
2019-05-26T09:21:35.906Z,3.93
2019-05-26T09:24:03.892Z,3.83
2019-05-26T09:26:31.425Z,4.20
2019-05-26T09:28:58.851Z,3.83
2019-05-26T09:31:26.279Z,3.47
2019-05-26T09:33:53.876Z,3.67
2019-05-26T09:36:21.269Z,3.37
2019-05-26T09:38:48.884Z,3.73
2019-05-26T09:41:16.510Z,3.20
2019-05-26T09:43:44.144Z,3.13
2019-05-26T09:46:11.622Z,3.30
2019-05-26T09:48:39.139Z,3.20
2019-05-26T09:51:06.875Z,3.03
2019-05-26T09:53:34.374Z,3.37
2019-05-26T09:56:01.788Z,3.50
2019-05-26T09:58:29.302Z,3.45
2019-05-26T10:00:56.786Z,3.02
2019-05-26T10:03:24.171Z,3.05
2019-05-26T10:05:53.719Z,3.33
2019-05-26T10:08:21.145Z,3.33
2019-05-26T10:10:48.539Z,3.10
2019-05-26T10:13:30.796Z,3.12
2019-05-26T10:15:46.019Z,3.30
2019-05-26T10:18:13.537Z,3.00
2019-05-26T10:20:41.189Z,3.60
2019-05-26T10:23:08.715Z,3.10
2019-05-26T10:25:36.135Z,3.37
2019-05-26T10:28:03.700Z,2.80
2019-05-26T10:30:31.209Z,3.23
2019-05-26T10:33:13.934Z,3.03
2019-05-26T10:35:41.481Z,3.10
2019-05-26T10:38:08.955Z,3.30
2019-05-26T10:40:36.347Z,3.20
2019-05-26T10:43:03.715Z,3.20
2019-05-26T10:45:34.164Z,2.80
2019-05-26T10:48:00.447Z,3.10
2019-05-26T10:50:27.857Z,3.30
2019-05-26T10:52:55.613Z,2.93
2019-05-26T10:55:23.115Z,3.00
2019-05-26T10:57:50.646Z,2.90
2019-05-26T11:00:19.834Z,3.13
2019-05-26T11:02:47.418Z,3.00
2019-05-26T11:05:15.123Z,3.47
2019-05-26T11:07:42.514Z,3.37
2019-05-26T11:10:11.979Z,3.00
2019-05-26T11:12:39.440Z,3.23
2019-05-26T11:15:08.236Z,3.23
2019-05-26T11:20:12.086Z,3.60
2019-05-26T11:22:39.552Z,3.23
2019-05-26T11:25:07.599Z,3.50
2019-05-26T11:27:34.977Z,3.30
2019-05-26T11:30:02.425Z,3.03
2019-05-26T11:32:29.836Z,3.00
2019-05-26T11:35:01.570Z,3.70
2019-05-26T11:37:26.536Z,3.17
2019-05-26T11:39:53.934Z,3.33
2019-05-26T11:42:21.300Z,3.00
2019-05-26T11:44:48.822Z,3.30
2019-05-26T11:47:16.213Z,3.10
2019-05-26T11:49:43.660Z,3.10
2019-05-26T11:52:11.106Z,3.03
2019-05-26T11:54:38.475Z,2.90
2019-05-26T11:57:05.949Z,2.93
2019-05-26T11:59:33.422Z,3.10
2019-05-26T12:02:00.950Z,3.30
2019-05-26T12:04:29.208Z,3.27
2019-05-26T12:06:57.272Z,3.20
2019-05-26T12:09:24.819Z,2.90
2019-05-26T12:11:52.216Z,3.10
2019-05-26T12:14:33.741Z,2.83
2019-05-26T12:16:48.943Z,3.00
2019-05-26T12:19:16.345Z,3.10
2019-05-26T12:21:43.711Z,3.00
2019-05-26T12:24:11.091Z,3.50
2019-05-26T12:26:38.439Z,3.50
2019-05-26T12:29:05.894Z,3.40
2019-05-26T12:31:33.428Z,2.90
2019-05-26T12:34:00.878Z,2.87
2019-05-26T12:36:28.476Z,3.13
2019-05-26T12:38:55.855Z,3.27
2019-05-26T12:41:23.256Z,3.20
2019-05-26T12:43:50.686Z,3.13
2019-05-26T12:46:18.227Z,3.00
2019-05-26T12:48:45.742Z,6.10
2019-05-26T12:51:13.156Z,3.70
2019-05-26T12:53:40.531Z,3.17
2019-05-26T12:56:07.943Z,3.27
2019-05-26T12:58:35.625Z,3.70
2019-05-26T13:01:03.202Z,3.40
2019-05-26T13:03:30.732Z,3.10
2019-05-26T13:05:58.234Z,3.10
2019-05-26T13:08:25.759Z,3.93
2019-05-26T13:10:53.237Z,3.20
2019-05-26T13:13:20.646Z,3.13
2019-05-26T13:15:48.201Z,3.00
2019-05-26T13:18:16.985Z,3.00
2019-05-26T13:20:44.529Z,2.90
2019-05-26T13:23:12.090Z,3.10
2019-05-26T13:25:39.562Z,2.83
2019-05-26T13:28:06.980Z,3.00
2019-05-26T13:30:36.329Z,2.93
2019-05-26T13:33:03.818Z,2.90
2019-05-26T13:35:31.446Z,2.97
2019-05-26T13:37:58.912Z,3.07
2019-05-26T13:40:29.453Z,3.20
2019-05-26T13:42:55.689Z,2.90
2019-05-26T13:45:23.540Z,2.83
2019-05-26T13:47:51.227Z,3.30
2019-05-26T13:50:20.381Z,3.33
2019-05-26T13:52:48.139Z,3.20
2019-05-26T13:55:15.662Z,3.10
2019-05-26T13:57:43.136Z,3.10
2019-05-26T14:00:11.880Z,3.30
2019-05-26T14:02:39.520Z,3.00
2019-05-26T14:05:07.584Z,3.27
2019-05-26T14:07:36.364Z,3.60
2019-05-26T14:10:04.613Z,3.50
2019-05-26T14:12:32.089Z,3.00
2019-05-26T14:14:59.542Z,3.00
2019-05-26T14:17:28.900Z,3.00
2019-05-26T14:19:59.275Z,3.10
2019-05-26T14:22:29.183Z,3.10
2019-05-26T14:24:57.074Z,3.30
2019-05-26T14:27:24.713Z,3.47
2019-05-26T14:29:52.269Z,3.00
2019-05-26T14:32:19.809Z,3.30
2019-05-26T14:34:47.280Z,2.97
2019-05-26T14:37:14.767Z,3.27
2019-05-26T14:39:42.148Z,3.03
2019-05-26T14:42:09.609Z,3.20
2019-05-26T14:44:39.542Z,3.10
2019-05-26T14:47:07.037Z,3.00
2019-05-26T14:49:34.488Z,3.10
2019-05-26T14:52:02.063Z,3.77
2019-05-26T14:54:29.689Z,3.00
2019-05-26T14:57:00.375Z,2.87
2019-05-26T14:59:27.857Z,3.17
2019-05-26T15:01:55.378Z,3.03
2019-05-26T15:04:22.867Z,3.00
2019-05-26T15:06:50.346Z,3.10
2019-05-26T15:09:25.026Z,3.00
2019-05-26T15:11:47.043Z,2.90
2019-05-26T15:14:14.519Z,2.93
2019-05-26T15:16:42.129Z,3.00
2019-05-26T15:19:09.532Z,3.40
2019-05-26T15:21:36.988Z,2.87
2019-05-26T15:24:04.412Z,2.97
2019-05-26T15:26:31.868Z,2.67
2019-05-26T15:28:59.242Z,3.23
2019-05-26T15:31:26.652Z,2.80
2019-05-26T15:33:54.260Z,2.70
2019-05-26T15:36:21.800Z,2.90
2019-05-26T15:38:49.240Z,2.97
2019-05-26T15:41:19.884Z,3.33
2019-05-26T15:43:47.372Z,2.80
2019-05-26T15:46:24.835Z,2.80
2019-05-26T15:48:45.915Z,2.70
2019-05-26T15:51:13.277Z,2.97
2019-05-26T15:53:40.702Z,3.20
2019-05-26T15:56:08.204Z,3.00
2019-05-26T15:58:35.666Z,2.90
2019-05-26T16:01:03.394Z,3.00
2019-05-26T16:03:30.930Z,3.00
2019-05-26T16:05:58.582Z,3.07
2019-05-26T16:08:26.089Z,3.03
2019-05-26T16:10:53.586Z,2.93
2019-05-26T16:13:21.317Z,2.93
2019-05-26T16:15:48.674Z,3.00
2019-05-26T16:18:16.152Z,3.30
2019-05-26T16:20:43.631Z,2.90
2019-05-26T16:23:11.428Z,2.97
2019-05-26T16:25:40.040Z,3.10
2019-05-26T16:28:07.548Z,3.17
2019-05-26T16:30:34.922Z,2.90
2019-05-26T16:33:03.001Z,3.53
2019-05-26T16:35:30.640Z,3.17
2019-05-26T16:37:58.219Z,3.87
2019-05-26T16:40:25.776Z,4.00
2019-05-26T16:42:53.194Z,3.43
2019-05-26T16:45:29.603Z,3.10
2019-05-26T16:48:00.022Z,3.00
2019-05-26T16:50:27.736Z,2.77
2019-05-26T16:52:55.580Z,2.80
2019-05-26T16:55:23.080Z,2.90
2019-05-26T16:58:10.631Z,3.80
2019-05-26T17:00:40.567Z,3.67
2019-05-26T17:03:08.043Z,3.10
2019-05-26T17:05:35.697Z,3.63
2019-05-26T17:08:03.096Z,3.97
2019-05-26T17:10:30.661Z,3.43
2019-05-26T17:12:58.155Z,3.70
2019-05-26T17:15:26.422Z,3.60
2019-05-26T17:17:53.910Z,3.53
2019-05-26T17:20:21.631Z,3.57
2019-05-26T17:22:49.292Z,3.20
2019-05-26T17:25:36.671Z,3.70
2019-05-26T17:28:07.159Z,3.30
2019-05-26T17:30:34.541Z,3.60
2019-05-26T17:33:02.062Z,3.60
2019-05-26T17:35:51.400Z,3.40
2019-05-26T17:38:18.933Z,4.13
2019-05-26T17:40:46.433Z,3.53
2019-05-26T17:43:13.922Z,3.10
2019-05-26T17:45:41.869Z,4.30
2019-05-26T17:48:14.383Z,4.30
2019-05-26T17:50:44.955Z,4.97
2019-05-26T17:53:12.554Z,3.87
2019-05-26T17:55:40.178Z,3.77
2019-05-26T17:58:07.784Z,4.40
2019-05-26T18:00:35.383Z,3.53
2019-05-26T18:03:02.909Z,5.77
2019-05-26T18:05:40.559Z,3.80
2019-05-26T18:08:07.955Z,3.90
2019-05-26T18:10:35.396Z,3.60
2019-05-26T18:13:02.867Z,3.70
2019-05-26T18:15:30.385Z,3.97
2019-05-26T18:17:57.765Z,5.90
2019-05-26T18:20:38.797Z,7.30
2019-05-26T18:23:22.999Z,4.50
2019-05-26T18:29:33.967Z,4.23
2019-05-26T18:32:01.585Z,4.47
2019-05-26T18:34:29.033Z,3.83
2019-05-26T18:36:56.451Z,3.73
2019-05-26T18:39:23.890Z,3.57
2019-05-26T18:41:51.275Z,3.50
2019-05-26T18:44:18.735Z,3.90
2019-05-26T18:46:46.171Z,3.87
2019-05-26T18:49:13.712Z,4.20
2019-05-26T18:51:41.177Z,4.00
2019-05-26T18:54:08.642Z,3.67
2019-05-26T18:56:36.040Z,3.80
2019-05-26T18:59:12.497Z,4.20
2019-05-26T19:01:42.968Z,4.00
2019-05-26T19:04:10.455Z,3.90
2019-05-26T19:06:37.896Z,4.10
2019-05-26T19:09:07.627Z,4.10
2019-05-26T19:11:35.140Z,4.30
2019-05-26T19:14:02.591Z,4.10
2019-05-26T19:16:29.981Z,4.60
2019-05-26T19:18:57.604Z,4.63
2019-05-26T19:21:25.114Z,3.93
2019-05-26T19:23:52.681Z,4.20
2019-05-26T19:26:23.237Z,4.00
2019-05-26T19:28:53.448Z,4.40
2019-05-26T19:31:21.383Z,4.50
2019-05-26T19:33:48.956Z,4.53
2019-05-26T19:36:16.604Z,4.20
2019-05-26T19:38:44.172Z,4.30
2019-05-26T19:41:11.738Z,4.40
2019-05-26T19:43:39.167Z,4.70
2019-05-26T19:46:07.207Z,4.40
2019-05-26T19:48:37.013Z,4.37
2019-05-26T19:51:04.168Z,4.40
2019-05-26T19:53:31.786Z,4.80
2019-05-26T19:55:59.607Z,4.20
2019-05-26T19:58:28.634Z,4.13
2019-05-26T20:00:56.472Z,4.20
2019-05-26T20:03:23.872Z,4.90
2019-05-26T20:05:51.539Z,4.40
2019-05-26T20:08:19.477Z,4.17
2019-05-26T20:10:47.134Z,4.63
2019-05-26T20:13:14.823Z,4.10
2019-05-26T20:15:42.476Z,5.07
2019-05-26T20:18:13.254Z,5.77
2019-05-26T20:20:41.774Z,5.00
2019-05-26T20:23:09.467Z,5.60
2019-05-26T20:25:36.981Z,4.97
2019-05-26T20:28:04.483Z,5.47
2019-05-26T20:30:32.071Z,4.23
2019-05-26T20:32:59.497Z,4.50
2019-05-26T20:35:29.498Z,5.03
2019-05-26T20:37:57.283Z,5.50
2019-05-26T20:40:27.208Z,5.20
2019-05-26T20:43:14.584Z,5.13
2019-05-26T20:45:45.565Z,5.47
2019-05-26T20:48:13.176Z,5.43
2019-05-26T20:50:40.956Z,5.53
2019-05-26T20:53:08.616Z,5.23
2019-05-26T20:55:36.386Z,5.70
2019-05-26T20:58:04.351Z,5.20
2019-05-26T21:00:31.887Z,5.63
2019-05-26T21:02:59.314Z,5.10
2019-05-26T21:05:26.923Z,5.27
2019-05-26T21:07:54.430Z,4.60
2019-05-26T21:10:22.131Z,5.13
2019-05-26T21:12:50.111Z,5.03
2019-05-26T21:15:17.976Z,5.03
2019-05-26T21:17:47.821Z,5.10
2019-05-26T21:20:15.720Z,4.70
2019-05-26T21:22:43.484Z,4.80
2019-05-26T21:25:11.176Z,5.00
2019-05-26T21:27:39.269Z,4.80
2019-05-26T21:30:07.066Z,5.20
2019-05-26T21:32:34.651Z,4.90
2019-05-26T21:35:02.372Z,5.27
2019-05-26T21:37:29.938Z,4.80
2019-05-26T21:39:57.448Z,4.73
2019-05-26T21:42:25.016Z,5.87
2019-05-26T21:44:52.526Z,5.10
2019-05-26T21:47:20.109Z,5.00
2019-05-26T21:49:47.828Z,4.90
2019-05-26T21:52:15.470Z,4.40
2019-05-26T21:54:43.086Z,4.57
2019-05-26T21:57:10.561Z,4.53
2019-05-26T21:59:41.924Z,4.90
2019-05-26T22:02:12.685Z,4.40
2019-05-26T22:04:40.392Z,4.90
2019-05-26T22:07:10.964Z,4.63
2019-05-26T22:09:38.618Z,4.40
2019-05-26T22:12:06.540Z,4.73
2019-05-26T22:14:35.150Z,4.93
2019-05-26T22:17:04.491Z,4.30
2019-05-26T22:19:31.874Z,4.47
2019-05-26T22:22:01.560Z,4.63
2019-05-26T22:24:29.219Z,5.13
2019-05-26T22:26:56.822Z,4.43
2019-05-26T22:29:24.336Z,4.43
2019-05-26T22:31:51.891Z,4.90
2019-05-26T22:34:19.231Z,5.00
2019-05-26T22:36:47.360Z,4.60
2019-05-26T22:39:14.988Z,5.00
2019-05-26T22:41:42.529Z,4.37
2019-05-26T22:44:11.370Z,4.90
2019-05-26T22:46:38.937Z,4.70
2019-05-26T22:49:06.668Z,4.53
2019-05-26T22:51:34.251Z,4.03
2019-05-26T22:54:01.763Z,5.30
2019-05-26T22:56:29.282Z,4.63
2019-05-26T22:58:56.663Z,4.20
2019-05-26T23:01:24.153Z,4.30
2019-05-26T23:03:51.671Z,4.20
2019-05-26T23:06:19.128Z,4.23
2019-05-26T23:08:46.658Z,4.47
2019-05-26T23:11:14.074Z,4.23
2019-05-26T23:13:41.506Z,4.40
2019-05-26T23:16:09.228Z,4.40
2019-05-26T23:18:36.649Z,4.30
2019-05-26T23:21:04.217Z,4.13
2019-05-26T23:23:31.804Z,4.30
2019-05-26T23:26:00.441Z,4.83
2019-05-26T23:28:27.878Z,4.33
2019-05-26T23:30:55.430Z,4.43
2019-05-26T23:33:23.213Z,4.13
2019-05-26T23:35:50.701Z,4.13
2019-05-26T23:38:18.229Z,3.73
2019-05-26T23:40:45.709Z,3.73
2019-05-26T23:43:13.199Z,4.50
2019-05-26T23:45:40.690Z,4.07
2019-05-26T23:48:08.190Z,3.73
2019-05-26T23:50:35.782Z,4.23
2019-05-26T23:53:03.363Z,3.90
2019-05-26T23:55:30.855Z,4.07
2019-05-26T23:57:58.238Z,4.37
